VIJP/JAI METAR and TAF weather

Enter ICAO airport designator
Station Type Date Time Source
VIJP METAR 2021/07/30 23:00 UTC NOAA

VIJP 302300Z 32006KT 2000 RA SCT020 BKN030 BKN090 25/24 Q0999 NOSIG


Station Type Date Time Source
VIJP Decoded METAR 2021/07/30 23:00 UTC NOAA

Jaipur / Sanganer, India (VIJP) 26-49N 075-48E 390M
Jul 30, 2021 - 07:00 PM EDT / 2021.07.30 2300 UTC
Wind: from the NW (320 degrees) at 7 MPH (6 KT):0
Visibility: 1 mile(s):0
Sky conditions: mostly cloudy
Weather: rain
Temperature: 77 F (25 C)
Dew Point: 75 F (24 C)
Relative Humidity: 94%
Pressure (altimeter): 29.50 in. Hg (0999 hPa)
ob: VIJP 302300Z 32006KT 2000 RA SCT020 BKN030 BKN090 25/24 Q0999 NOSIG
cycle: 23

Station Type Date Time Source
VIJP TAF 2021/07/30 18:00 UTC NOAA

TAF VIJP 301700Z 3018/3124 29008KT 2000 HZ BR SCT020 SCT030 BKN090
TEMPO 3018/3022 29010KT 1500 TSRA FEW035CB OVC080
BECMG 3104/3106 27006KT 3000 HZ DZ BKN030 BKN100
BECMG 3113/3115 25006KT 2500 HZ BR SCT030 SCT100 BKN100
TEMPO 3112/3115 23010KT 1500 TSRA FEW035CB OVC080

Example: see airport list